sensor_id;sensor_type;location;lat;lon;timestamp;temperature;humidity
2889;DHT22;1453;42.708;23.282;2022-07-10T00:00:12;15.40;99.90
2889;DHT22;1453;42.708;23.282;2022-07-10T00:02:41;15.40;99.90
2889;DHT22;1453;42.708;23.282;2022-07-10T00:05:09;15.40;99.90
2889;DHT22;1453;42.708;23.282;2022-07-10T00:07:35;15.40;99.90
2889;DHT22;1453;42.708;23.282;2022-07-10T00:10:03;15.20;99.90
2889;DHT22;1453;42.708;23.282;2022-07-10T00:12:30;15.20;99.90
2889;DHT22;1453;42.708;23.282;2022-07-10T00:14:55;15.30;99.90
2889;DHT22;1453;42.708;23.282;2022-07-10T00:17:21;15.40;99.90
2889;DHT22;1453;42.708;23.282;2022-07-10T00:19:47;15.40;99.90
2889;DHT22;1453;42.708;23.282;2022-07-10T00:22:13;15.40;99.90
2889;DHT22;1453;42.708;23.282;2022-07-10T00:24:39;15.50;99.90
2889;DHT22;1453;42.708;23.282;2022-07-10T00:27:05;15.50;99.90
2889;DHT22;1453;42.708;23.282;2022-07-10T00:29:30;15.30;99.90
2889;DHT22;1453;42.708;23.282;2022-07-10T00:31:56;15.20;99.90
2889;DHT22;1453;42.708;23.282;2022-07-10T00:34:22;15.20;99.90
2889;DHT22;1453;42.708;23.282;2022-07-10T00:36:48;15.10;99.90
2889;DHT22;1453;42.708;23.282;2022-07-10T00:39:14;15.10;99.90
2889;DHT22;1453;42.708;23.282;2022-07-10T00:41:39;15.00;99.90
2889;DHT22;1453;42.708;23.282;2022-07-10T00:44:05;15.00;99.90
2889;DHT22;1453;42.708;23.282;2022-07-10T00:46:31;15.00;99.90
2889;DHT22;1453;42.708;23.282;2022-07-10T00:48:58;15.00;99.90
2889;DHT22;1453;42.708;23.282;2022-07-10T00:51:29;15.00;99.90
2889;DHT22;1453;42.708;23.282;2022-07-10T00:53:56;15.00;99.90
2889;DHT22;1453;42.708;23.282;2022-07-10T00:56:24;14.90;99.90
2889;DHT22;1453;42.708;23.282;2022-07-10T00:58:51;14.90;99.90
2889;DHT22;1453;42.708;23.282;2022-07-10T01:01:17;14.80;99.90
2889;DHT22;1453;42.708;23.282;2022-07-10T01:03:44;14.90;99.90
2889;DHT22;1453;42.708;23.282;2022-07-10T01:06:14;14.90;99.90
2889;DHT22;1453;42.708;23.282;2022-07-10T01:08:40;14.80;99.90
2889;DHT22;1453;42.708;23.282;2022-07-10T01:11:08;14.90;99.90
2889;DHT22;1453;42.708;23.282;2022-07-10T01:13:34;14.80;99.90
2889;DHT22;1453;42.708;23.282;2022-07-10T01:16:00;14.90;99.90
2889;DHT22;1453;42.708;23.282;2022-07-10T01:18:26;14.80;99.90
2889;DHT22;1453;42.708;23.282;2022-07-10T01:20:55;14.80;99.90
2889;DHT22;1453;42.708;23.282;2022-07-10T01:23:22;14.90;99.90
2889;DHT22;1453;42.708;23.282;2022-07-10T01:25:49;14.90;99.90
2889;DHT22;1453;42.708;23.282;2022-07-10T01:28:20;14.90;99.90
2889;DHT22;1453;42.708;23.282;2022-07-10T01:30:47;14.90;99.90
2889;DHT22;1453;42.708;23.282;2022-07-10T01:33:13;15.00;99.90
2889;DHT22;1453;42.708;23.282;2022-07-10T01:35:39;14.90;99.90
2889;DHT22;1453;42.708;23.282;2022-07-10T01:38:06;15.00;99.90
2889;DHT22;1453;42.708;23.282;2022-07-10T01:40:32;15.00;99.90
2889;DHT22;1453;42.708;23.282;2022-07-10T01:42:58;15.20;99.90
2889;DHT22;1453;42.708;23.282;2022-07-10T01:45:24;15.10;99.90
2889;DHT22;1453;42.708;23.282;2022-07-10T01:47:50;15.10;99.90
2889;DHT22;1453;42.708;23.282;2022-07-10T01:50:17;15.20;99.90
2889;DHT22;1453;42.708;23.282;2022-07-10T01:52:42;15.00;99.90
2889;DHT22;1453;42.708;23.282;2022-07-10T01:55:09;14.90;99.90
2889;DHT22;1453;42.708;23.282;2022-07-10T01:57:35;14.70;99.90
2889;DHT22;1453;42.708;23.282;2022-07-10T02:00:00;14.60;99.90
2889;DHT22;1453;42.708;23.282;2022-07-10T02:02:26;14.60;99.90
2889;DHT22;1453;42.708;23.282;2022-07-10T02:04:52;14.70;99.90
2889;DHT22;1453;42.708;23.282;2022-07-10T02:07:18;14.60;99.90
2889;DHT22;1453;42.708;23.282;2022-07-10T02:09:47;14.60;99.90
2889;DHT22;1453;42.708;23.282;2022-07-10T02:12:14;14.60;99.90
2889;DHT22;1453;42.708;23.282;2022-07-10T02:14:40;14.70;99.90
2889;DHT22;1453;42.708;23.282;2022-07-10T02:17:07;14.70;99.90
2889;DHT22;1453;42.708;23.282;2022-07-10T02:19:34;14.60;99.90
2889;DHT22;1453;42.708;23.282;2022-07-10T02:22:00;14.60;99.90
2889;DHT22;1453;42.708;23.282;2022-07-10T02:24:26;14.50;99.90
2889;DHT22;1453;42.708;23.282;2022-07-10T02:26:52;14.60;99.90
2889;DHT22;1453;42.708;23.282;2022-07-10T02:29:20;14.70;99.90
2889;DHT22;1453;42.708;23.282;2022-07-10T02:31:48;14.50;99.90
2889;DHT22;1453;42.708;23.282;2022-07-10T02:34:14;14.60;99.90
2889;DHT22;1453;42.708;23.282;2022-07-10T02:36:40;14.50;99.90
2889;DHT22;1453;42.708;23.282;2022-07-10T02:39:07;14.50;99.90
2889;DHT22;1453;42.708;23.282;2022-07-10T02:41:34;14.50;99.90
2889;DHT22;1453;42.708;23.282;2022-07-10T02:44:02;14.40;99.90
2889;DHT22;1453;42.708;23.282;2022-07-10T02:46:28;14.40;99.90
2889;DHT22;1453;42.708;23.282;2022-07-10T02:48:54;14.50;99.90
2889;DHT22;1453;42.708;23.282;2022-07-10T02:51:20;14.60;99.90
2889;DHT22;1453;42.708;23.282;2022-07-10T02:53:45;14.70;99.90
2889;DHT22;1453;42.708;23.282;2022-07-10T02:56:11;14.80;99.90
2889;DHT22;1453;42.708;23.282;2022-07-10T02:58:38;14.80;99.90
2889;DHT22;1453;42.708;23.282;2022-07-10T03:01:05;14.70;99.90
2889;DHT22;1453;42.708;23.282;2022-07-10T03:03:31;14.60;99.90
2889;DHT22;1453;42.708;23.282;2022-07-10T03:05:57;14.60;99.90
2889;DHT22;1453;42.708;23.282;2022-07-10T03:08:22;14.70;99.90
2889;DHT22;1453;42.708;23.282;2022-07-10T03:10:48;14.60;99.90
2889;DHT22;1453;42.708;23.282;2022-07-10T03:13:14;14.70;99.90
2889;DHT22;1453;42.708;23.282;2022-07-10T03:15:40;14.60;99.90
2889;DHT22;1453;42.708;23.282;2022-07-10T03:18:05;14.60;99.90
2889;DHT22;1453;42.708;23.282;2022-07-10T03:20:31;14.60;99.90
2889;DHT22;1453;42.708;23.282;2022-07-10T03:22:57;14.50;99.90
2889;DHT22;1453;42.708;23.282;2022-07-10T03:25:23;14.50;99.90
2889;DHT22;1453;42.708;23.282;2022-07-10T03:27:49;14.60;99.90
2889;DHT22;1453;42.708;23.282;2022-07-10T03:30:14;14.40;99.90
2889;DHT22;1453;42.708;23.282;2022-07-10T03:32:40;14.50;99.90
2889;DHT22;1453;42.708;23.282;2022-07-10T03:35:06;14.50;99.90
2889;DHT22;1453;42.708;23.282;2022-07-10T03:37:32;14.50;99.90
2889;DHT22;1453;42.708;23.282;2022-07-10T03:39:58;14.60;99.90
2889;DHT22;1453;42.708;23.282;2022-07-10T03:42:24;14.60;99.90
2889;DHT22;1453;42.708;23.282;2022-07-10T03:44:50;14.60;99.90
2889;DHT22;1453;42.708;23.282;2022-07-10T03:47:15;14.60;99.90
2889;DHT22;1453;42.708;23.282;2022-07-10T03:49:41;14.70;99.90
2889;DHT22;1453;42.708;23.282;2022-07-10T03:52:07;14.80;99.90
2889;DHT22;1453;42.708;23.282;2022-07-10T03:54:34;14.70;99.90
2889;DHT22;1453;42.708;23.282;2022-07-10T03:57:00;14.80;99.90
2889;DHT22;1453;42.708;23.282;2022-07-10T03:59:44;14.80;99.90
2889;DHT22;1453;42.708;23.282;2022-07-10T04:02:10;15.00;99.90
2889;DHT22;1453;42.708;23.282;2022-07-10T04:04:37;15.10;99.90
2889;DHT22;1453;42.708;23.282;2022-07-10T04:07:02;15.20;99.90
2889;DHT22;1453;42.708;23.282;2022-07-10T04:09:30;15.30;99.90
2889;DHT22;1453;42.708;23.282;2022-07-10T04:11:56;15.10;99.90
2889;DHT22;1453;42.708;23.282;2022-07-10T04:14:22;15.10;99.90
2889;DHT22;1453;42.708;23.282;2022-07-10T04:16:48;15.10;99.90
2889;DHT22;1453;42.708;23.282;2022-07-10T04:19:13;15.20;99.90
2889;DHT22;1453;42.708;23.282;2022-07-10T04:21:39;15.30;99.90
2889;DHT22;1453;42.708;23.282;2022-07-10T04:24:05;15.40;99.90
2889;DHT22;1453;42.708;23.282;2022-07-10T04:26:31;15.30;99.90
2889;DHT22;1453;42.708;23.282;2022-07-10T04:28:57;15.50;99.90
2889;DHT22;1453;42.708;23.282;2022-07-10T04:31:23;15.70;99.90
2889;DHT22;1453;42.708;23.282;2022-07-10T04:33:48;15.70;99.90
2889;DHT22;1453;42.708;23.282;2022-07-10T04:36:14;15.90;99.90
2889;DHT22;1453;42.708;23.282;2022-07-10T04:38:41;16.10;99.90
2889;DHT22;1453;42.708;23.282;2022-07-10T04:41:07;16.20;99.90
2889;DHT22;1453;42.708;23.282;2022-07-10T04:43:33;16.40;99.90
2889;DHT22;1453;42.708;23.282;2022-07-10T04:45:59;16.60;99.90
2889;DHT22;1453;42.708;23.282;2022-07-10T04:48:25;16.70;99.90
2889;DHT22;1453;42.708;23.282;2022-07-10T04:50:51;16.60;99.90
2889;DHT22;1453;42.708;23.282;2022-07-10T04:53:16;16.60;99.90
2889;DHT22;1453;42.708;23.282;2022-07-10T04:55:42;16.60;99.90
2889;DHT22;1453;42.708;23.282;2022-07-10T04:58:08;16.40;99.90
2889;DHT22;1453;42.708;23.282;2022-07-10T05:00:33;16.30;99.90
2889;DHT22;1453;42.708;23.282;2022-07-10T05:02:59;16.40;99.90
2889;DHT22;1453;42.708;23.282;2022-07-10T05:05:25;16.50;99.90
2889;DHT22;1453;42.708;23.282;2022-07-10T05:07:51;16.80;99.90
2889;DHT22;1453;42.708;23.282;2022-07-10T05:10:17;16.60;99.90
2889;DHT22;1453;42.708;23.282;2022-07-10T05:12:42;16.70;99.90
2889;DHT22;1453;42.708;23.282;2022-07-10T05:15:09;16.70;99.90
2889;DHT22;1453;42.708;23.282;2022-07-10T05:17:35;16.90;99.90
2889;DHT22;1453;42.708;23.282;2022-07-10T05:20:00;17.00;99.90
2889;DHT22;1453;42.708;23.282;2022-07-10T05:22:26;17.10;99.90
2889;DHT22;1453;42.708;23.282;2022-07-10T05:24:52;17.20;99.90
2889;DHT22;1453;42.708;23.282;2022-07-10T05:27:18;17.20;99.90
2889;DHT22;1453;42.708;23.282;2022-07-10T05:29:46;17.20;99.90
2889;DHT22;1453;42.708;23.282;2022-07-10T05:32:12;17.20;99.90
2889;DHT22;1453;42.708;23.282;2022-07-10T05:34:38;17.40;99.90
2889;DHT22;1453;42.708;23.282;2022-07-10T05:37:05;17.40;99.90
2889;DHT22;1453;42.708;23.282;2022-07-10T05:39:31;17.70;99.90
2889;DHT22;1453;42.708;23.282;2022-07-10T05:41:57;18.00;99.90
2889;DHT22;1453;42.708;23.282;2022-07-10T05:44:23;18.10;99.90
2889;DHT22;1453;42.708;23.282;2022-07-10T05:46:50;18.60;99.90
2889;DHT22;1453;42.708;23.282;2022-07-10T05:49:15;18.90;99.90
2889;DHT22;1453;42.708;23.282;2022-07-10T05:51:41;18.90;99.90
2889;DHT22;1453;42.708;23.282;2022-07-10T05:54:08;19.00;99.90
2889;DHT22;1453;42.708;23.282;2022-07-10T05:56:34;19.40;99.90
2889;DHT22;1453;42.708;23.282;2022-07-10T05:59:00;19.40;99.90
2889;DHT22;1453;42.708;23.282;2022-07-10T06:01:26;19.50;99.90
2889;DHT22;1453;42.708;23.282;2022-07-10T06:03:52;19.90;99.90
2889;DHT22;1453;42.708;23.282;2022-07-10T06:06:18;19.70;99.90
2889;DHT22;1453;42.708;23.282;2022-07-10T06:08:44;19.70;99.90
2889;DHT22;1453;42.708;23.282;2022-07-10T06:11:11;20.00;99.90
2889;DHT22;1453;42.708;23.282;2022-07-10T06:13:38;20.40;99.90
2889;DHT22;1453;42.708;23.282;2022-07-10T06:16:04;20.40;99.90
2889;DHT22;1453;42.708;23.282;2022-07-10T06:18:31;20.80;99.90
2889;DHT22;1453;42.708;23.282;2022-07-10T06:20:57;20.70;99.90
2889;DHT22;1453;42.708;23.282;2022-07-10T06:23:23;20.60;99.90
2889;DHT22;1453;42.708;23.282;2022-07-10T06:25:49;20.50;99.90
2889;DHT22;1453;42.708;23.282;2022-07-10T06:28:18;20.40;99.90
2889;DHT22;1453;42.708;23.282;2022-07-10T06:30:44;19.80;99.90
2889;DHT22;1453;42.708;23.282;2022-07-10T06:33:13;19.70;99.90
2889;DHT22;1453;42.708;23.282;2022-07-10T06:35:39;19.90;99.90
2889;DHT22;1453;42.708;23.282;2022-07-10T06:38:05;20.20;99.90
2889;DHT22;1453;42.708;23.282;2022-07-10T06:40:35;20.30;99.90
2889;DHT22;1453;42.708;23.282;2022-07-10T06:43:02;20.20;99.90
2889;DHT22;1453;42.708;23.282;2022-07-10T06:45:28;20.30;99.90
2889;DHT22;1453;42.708;23.282;2022-07-10T06:47:54;20.40;99.90
2889;DHT22;1453;42.708;23.282;2022-07-10T06:50:25;20.30;99.90
2889;DHT22;1453;42.708;23.282;2022-07-10T06:52:52;20.60;99.90
2889;DHT22;1453;42.708;23.282;2022-07-10T06:55:18;21.00;99.90
2889;DHT22;1453;42.708;23.282;2022-07-10T06:57:45;21.20;99.90
2889;DHT22;1453;42.708;23.282;2022-07-10T07:00:11;21.40;99.90
2889;DHT22;1453;42.708;23.282;2022-07-10T07:02:38;21.10;99.90
2889;DHT22;1453;42.708;23.282;2022-07-10T07:05:04;20.60;99.90
2889;DHT22;1453;42.708;23.282;2022-07-10T07:07:31;20.40;99.90
2889;DHT22;1453;42.708;23.282;2022-07-10T07:09:57;20.40;99.90
2889;DHT22;1453;42.708;23.282;2022-07-10T07:12:22;20.30;99.90
2889;DHT22;1453;42.708;23.282;2022-07-10T07:14:48;20.30;99.90
2889;DHT22;1453;42.708;23.282;2022-07-10T07:17:14;20.30;99.90
2889;DHT22;1453;42.708;23.282;2022-07-10T07:19:47;21.20;99.90
2889;DHT22;1453;42.708;23.282;2022-07-10T07:22:32;22.00;99.90
2889;DHT22;1453;42.708;23.282;2022-07-10T07:25:16;22.70;99.90
2889;DHT22;1453;42.708;23.282;2022-07-10T07:27:42;23.00;99.90
2889;DHT22;1453;42.708;23.282;2022-07-10T07:30:10;22.70;99.90
2889;DHT22;1453;42.708;23.282;2022-07-10T07:32:38;22.50;99.90
2889;DHT22;1453;42.708;23.282;2022-07-10T07:35:05;23.10;99.90
2889;DHT22;1453;42.708;23.282;2022-07-10T07:37:48;22.90;99.90
2889;DHT22;1453;42.708;23.282;2022-07-10T07:40:20;22.90;99.90
2889;DHT22;1453;42.708;23.282;2022-07-10T07:42:51;22.70;99.90
2889;DHT22;1453;42.708;23.282;2022-07-10T07:45:18;23.00;99.90
2889;DHT22;1453;42.708;23.282;2022-07-10T07:47:50;23.00;99.90
2889;DHT22;1453;42.708;23.282;2022-07-10T07:50:24;23.10;99.90
2889;DHT22;1453;42.708;23.282;2022-07-10T07:53:01;23.20;99.90
2889;DHT22;1453;42.708;23.282;2022-07-10T07:55:28;23.20;99.90
2889;DHT22;1453;42.708;23.282;2022-07-10T07:57:56;23.80;99.90
2889;DHT22;1453;42.708;23.282;2022-07-10T08:00:24;22.90;99.90
2889;DHT22;1453;42.708;23.282;2022-07-10T08:02:52;23.20;99.90
2889;DHT22;1453;42.708;23.282;2022-07-10T08:05:20;24.00;99.90
2889;DHT22;1453;42.708;23.282;2022-07-10T08:07:49;24.20;99.90
2889;DHT22;1453;42.708;23.282;2022-07-10T08:10:18;24.30;99.90
2889;DHT22;1453;42.708;23.282;2022-07-10T08:12:46;24.70;99.90
2889;DHT22;1453;42.708;23.282;2022-07-10T08:15:17;24.60;99.60
2889;DHT22;1453;42.708;23.282;2022-07-10T08:17:47;24.40;99.90
2889;DHT22;1453;42.708;23.282;2022-07-10T08:20:13;24.40;99.90
2889;DHT22;1453;42.708;23.282;2022-07-10T08:22:40;24.20;99.90
2889;DHT22;1453;42.708;23.282;2022-07-10T08:25:07;23.80;99.90
2889;DHT22;1453;42.708;23.282;2022-07-10T08:27:34;24.10;99.90
2889;DHT22;1453;42.708;23.282;2022-07-10T08:30:00;24.10;99.90
2889;DHT22;1453;42.708;23.282;2022-07-10T08:32:26;24.50;99.80
2889;DHT22;1453;42.708;23.282;2022-07-10T08:34:52;24.30;99.90
2889;DHT22;1453;42.708;23.282;2022-07-10T08:37:19;24.40;98.40
2889;DHT22;1453;42.708;23.282;2022-07-10T08:39:45;23.70;97.30
2889;DHT22;1453;42.708;23.282;2022-07-10T08:42:12;24.00;98.90
2889;DHT22;1453;42.708;23.282;2022-07-10T08:44:38;24.80;98.20
2889;DHT22;1453;42.708;23.282;2022-07-10T08:47:05;25.70;95.20
2889;DHT22;1453;42.708;23.282;2022-07-10T08:49:32;24.80;95.60
2889;DHT22;1453;42.708;23.282;2022-07-10T08:52:16;24.50;95.90
2889;DHT22;1453;42.708;23.282;2022-07-10T08:54:52;24.40;96.20
2889;DHT22;1453;42.708;23.282;2022-07-10T08:57:18;24.70;96.80
2889;DHT22;1453;42.708;23.282;2022-07-10T08:59:45;25.20;95.80
2889;DHT22;1453;42.708;23.282;2022-07-10T09:02:11;25.20;94.30
2889;DHT22;1453;42.708;23.282;2022-07-10T09:04:36;24.80;94.20
2889;DHT22;1453;42.708;23.282;2022-07-10T09:07:02;25.40;94.60
2889;DHT22;1453;42.708;23.282;2022-07-10T09:09:29;25.90;94.00
2889;DHT22;1453;42.708;23.282;2022-07-10T09:11:58;25.30;92.70
2889;DHT22;1453;42.708;23.282;2022-07-10T09:14:28;26.10;94.10
2889;DHT22;1453;42.708;23.282;2022-07-10T09:16:54;27.00;92.90
2889;DHT22;1453;42.708;23.282;2022-07-10T09:19:25;24.80;91.20
2889;DHT22;1453;42.708;23.282;2022-07-10T09:21:53;24.00;93.70
2889;DHT22;1453;42.708;23.282;2022-07-10T09:24:21;24.20;94.50
2889;DHT22;1453;42.708;23.282;2022-07-10T09:26:59;24.60;93.20
2889;DHT22;1453;42.708;23.282;2022-07-10T09:29:26;24.70;94.30
2889;DHT22;1453;42.708;23.282;2022-07-10T09:32:00;25.50;94.70
2889;DHT22;1453;42.708;23.282;2022-07-10T09:37:18;25.40;92.40
2889;DHT22;1453;42.708;23.282;2022-07-10T09:42:32;25.90;90.40
2889;DHT22;1453;42.708;23.282;2022-07-10T09:53:01;26.50;86.30
2889;DHT22;1453;42.708;23.282;2022-07-10T09:55:31;27.50;85.60
2889;DHT22;1453;42.708;23.282;2022-07-10T10:00:33;27.00;82.20
2889;DHT22;1453;42.708;23.282;2022-07-10T10:03:07;26.70;84.40
2889;DHT22;1453;42.708;23.282;2022-07-10T10:08:27;26.30;83.30
2889;DHT22;1453;42.708;23.282;2022-07-10T10:10:58;26.90;83.70
2889;DHT22;1453;42.708;23.282;2022-07-10T10:13:26;26.90;82.40
2889;DHT22;1453;42.708;23.282;2022-07-10T10:15:54;25.80;85.60
2889;DHT22;1453;42.708;23.282;2022-07-10T10:18:22;25.00;88.30
2889;DHT22;1453;42.708;23.282;2022-07-10T10:20:50;24.40;89.90
2889;DHT22;1453;42.708;23.282;2022-07-10T10:23:24;24.00;91.10
2889;DHT22;1453;42.708;23.282;2022-07-10T10:25:56;24.30;91.80
2889;DHT22;1453;42.708;23.282;2022-07-10T10:28:24;24.90;91.60
2889;DHT22;1453;42.708;23.282;2022-07-10T10:30:59;25.90;90.20
2889;DHT22;1453;42.708;23.282;2022-07-10T10:36:03;25.60;90.10
2889;DHT22;1453;42.708;23.282;2022-07-10T10:41:36;26.50;86.80
2889;DHT22;1453;42.708;23.282;2022-07-10T10:46:54;25.70;88.20
2889;DHT22;1453;42.708;23.282;2022-07-10T10:49:27;25.60;87.40
2889;DHT22;1453;42.708;23.282;2022-07-10T10:52:14;25.70;88.10
2889;DHT22;1453;42.708;23.282;2022-07-10T11:00:04;25.00;87.90
2889;DHT22;1453;42.708;23.282;2022-07-10T11:02:38;24.90;89.00
2889;DHT22;1453;42.708;23.282;2022-07-10T11:08:00;25.50;89.50
2889;DHT22;1453;42.708;23.282;2022-07-10T11:15:41;25.40;90.00
2889;DHT22;1453;42.708;23.282;2022-07-10T11:18:13;25.70;89.20
2889;DHT22;1453;42.708;23.282;2022-07-10T11:20:42;25.20;89.20
2889;DHT22;1453;42.708;23.282;2022-07-10T11:27:12;24.50;90.30
2889;DHT22;1453;42.708;23.282;2022-07-10T11:29:39;24.60;90.70
2889;DHT22;1453;42.708;23.282;2022-07-10T11:32:05;24.80;90.70
2889;DHT22;1453;42.708;23.282;2022-07-10T11:34:36;24.80;90.50
2889;DHT22;1453;42.708;23.282;2022-07-10T11:37:20;24.60;90.40
2889;DHT22;1453;42.708;23.282;2022-07-10T11:39:47;25.00;90.00
2889;DHT22;1453;42.708;23.282;2022-07-10T11:42:13;24.80;90.20
2889;DHT22;1453;42.708;23.282;2022-07-10T11:44:39;24.80;90.20
2889;DHT22;1453;42.708;23.282;2022-07-10T11:47:05;25.20;90.60
2889;DHT22;1453;42.708;23.282;2022-07-10T11:49:33;25.70;87.80
2889;DHT22;1453;42.708;23.282;2022-07-10T11:52:03;25.70;87.70
2889;DHT22;1453;42.708;23.282;2022-07-10T11:54:30;25.90;86.80
2889;DHT22;1453;42.708;23.282;2022-07-10T11:56:56;25.90;85.80
2889;DHT22;1453;42.708;23.282;2022-07-10T11:59:28;25.60;83.90
2889;DHT22;1453;42.708;23.282;2022-07-10T12:01:55;25.50;83.70
2889;DHT22;1453;42.708;23.282;2022-07-10T12:04:23;25.10;85.10
2889;DHT22;1453;42.708;23.282;2022-07-10T12:06:51;24.80;84.80
2889;DHT22;1453;42.708;23.282;2022-07-10T12:09:22;24.60;86.20
2889;DHT22;1453;42.708;23.282;2022-07-10T12:12:00;24.40;85.20
2889;DHT22;1453;42.708;23.282;2022-07-10T12:14:27;24.50;87.30
2889;DHT22;1453;42.708;23.282;2022-07-10T12:16:54;24.90;87.30
2889;DHT22;1453;42.708;23.282;2022-07-10T12:19:24;25.20;84.80
2889;DHT22;1453;42.708;23.282;2022-07-10T12:21:59;25.00;83.10
2889;DHT22;1453;42.708;23.282;2022-07-10T12:24:26;24.60;83.50
2889;DHT22;1453;42.708;23.282;2022-07-10T12:26:52;24.40;83.30
2889;DHT22;1453;42.708;23.282;2022-07-10T12:29:19;24.50;83.00
2889;DHT22;1453;42.708;23.282;2022-07-10T12:31:46;24.60;82.90
2889;DHT22;1453;42.708;23.282;2022-07-10T12:34:14;24.80;84.70
2889;DHT22;1453;42.708;23.282;2022-07-10T12:37:07;25.00;81.40
2889;DHT22;1453;42.708;23.282;2022-07-10T12:39:38;25.00;82.00
2889;DHT22;1453;42.708;23.282;2022-07-10T12:42:27;24.80;82.00
2889;DHT22;1453;42.708;23.282;2022-07-10T12:44:54;24.90;79.90
2889;DHT22;1453;42.708;23.282;2022-07-10T12:47:20;24.90;79.50
2889;DHT22;1453;42.708;23.282;2022-07-10T12:52:33;24.40;76.60
2889;DHT22;1453;42.708;23.282;2022-07-10T12:55:07;24.40;76.30
2889;DHT22;1453;42.708;23.282;2022-07-10T12:57:55;24.60;76.30
2889;DHT22;1453;42.708;23.282;2022-07-10T13:03:09;24.40;71.60
2889;DHT22;1453;42.708;23.282;2022-07-10T13:05:40;24.60;71.90
2889;DHT22;1453;42.708;23.282;2022-07-10T13:08:21;24.30;70.60
2889;DHT22;1453;42.708;23.282;2022-07-10T13:13:18;24.40;70.40
2889;DHT22;1453;42.708;23.282;2022-07-10T13:15:44;24.60;72.40
2889;DHT22;1453;42.708;23.282;2022-07-10T13:18:20;25.10;72.30
2889;DHT22;1453;42.708;23.282;2022-07-10T13:20:48;25.10;70.20
2889;DHT22;1453;42.708;23.282;2022-07-10T13:23:16;25.20;70.40
2889;DHT22;1453;42.708;23.282;2022-07-10T13:25:44;25.20;67.30
2889;DHT22;1453;42.708;23.282;2022-07-10T13:28:10;25.30;67.50
2889;DHT22;1453;42.708;23.282;2022-07-10T13:30:39;25.10;67.10
2889;DHT22;1453;42.708;23.282;2022-07-10T13:33:05;25.40;67.90
2889;DHT22;1453;42.708;23.282;2022-07-10T13:35:32;25.20;67.90
2889;DHT22;1453;42.708;23.282;2022-07-10T13:37:59;25.10;68.70
2889;DHT22;1453;42.708;23.282;2022-07-10T13:40:31;24.60;68.10
2889;DHT22;1453;42.708;23.282;2022-07-10T13:42:58;24.40;69.80
2889;DHT22;1453;42.708;23.282;2022-07-10T13:45:25;24.40;70.10
2889;DHT22;1453;42.708;23.282;2022-07-10T13:47:55;24.50;70.90
2889;DHT22;1453;42.708;23.282;2022-07-10T13:50:22;24.40;71.60
2889;DHT22;1453;42.708;23.282;2022-07-10T13:52:48;24.40;71.00
2889;DHT22;1453;42.708;23.282;2022-07-10T13:55:14;24.10;71.30
2889;DHT22;1453;42.708;23.282;2022-07-10T13:57:41;23.90;71.80
2889;DHT22;1453;42.708;23.282;2022-07-10T14:00:07;23.70;73.30
2889;DHT22;1453;42.708;23.282;2022-07-10T14:02:33;23.70;72.60
2889;DHT22;1453;42.708;23.282;2022-07-10T14:05:00;23.80;72.40
2889;DHT22;1453;42.708;23.282;2022-07-10T14:07:26;23.80;71.90
2889;DHT22;1453;42.708;23.282;2022-07-10T14:09:52;23.90;72.00
2889;DHT22;1453;42.708;23.282;2022-07-10T14:12:18;24.00;72.10
2889;DHT22;1453;42.708;23.282;2022-07-10T14:14:44;23.50;72.20
2889;DHT22;1453;42.708;23.282;2022-07-10T14:17:09;23.50;71.70
2889;DHT22;1453;42.708;23.282;2022-07-10T14:19:35;23.60;71.90
2889;DHT22;1453;42.708;23.282;2022-07-10T14:22:01;23.70;72.50
2889;DHT22;1453;42.708;23.282;2022-07-10T14:24:27;23.40;73.30
2889;DHT22;1453;42.708;23.282;2022-07-10T14:26:53;23.30;74.40
2889;DHT22;1453;42.708;23.282;2022-07-10T14:29:20;23.10;75.10
2889;DHT22;1453;42.708;23.282;2022-07-10T14:31:46;23.10;74.50
2889;DHT22;1453;42.708;23.282;2022-07-10T14:34:15;23.20;73.90
2889;DHT22;1453;42.708;23.282;2022-07-10T14:36:41;23.00;72.60
2889;DHT22;1453;42.708;23.282;2022-07-10T14:39:07;23.00;73.50
2889;DHT22;1453;42.708;23.282;2022-07-10T14:41:33;22.90;74.00
2889;DHT22;1453;42.708;23.282;2022-07-10T14:43:59;22.80;75.10
2889;DHT22;1453;42.708;23.282;2022-07-10T14:46:24;22.70;75.30
2889;DHT22;1453;42.708;23.282;2022-07-10T14:48:50;22.80;76.40
2889;DHT22;1453;42.708;23.282;2022-07-10T14:51:17;23.00;76.70
2889;DHT22;1453;42.708;23.282;2022-07-10T14:53:43;23.20;76.00
2889;DHT22;1453;42.708;23.282;2022-07-10T14:56:11;22.90;77.10
2889;DHT22;1453;42.708;23.282;2022-07-10T14:58:37;22.80;77.00
2889;DHT22;1453;42.708;23.282;2022-07-10T15:01:03;23.10;75.80
2889;DHT22;1453;42.708;23.282;2022-07-10T15:03:29;23.20;74.40
2889;DHT22;1453;42.708;23.282;2022-07-10T15:05:55;23.20;74.50
2889;DHT22;1453;42.708;23.282;2022-07-10T15:08:26;23.40;75.40
2889;DHT22;1453;42.708;23.282;2022-07-10T15:10:52;23.40;74.90
2889;DHT22;1453;42.708;23.282;2022-07-10T15:13:18;23.50;75.40
2889;DHT22;1453;42.708;23.282;2022-07-10T15:15:44;23.60;75.80
2889;DHT22;1453;42.708;23.282;2022-07-10T15:18:10;23.70;76.80
2889;DHT22;1453;42.708;23.282;2022-07-10T15:20:36;23.50;76.30
2889;DHT22;1453;42.708;23.282;2022-07-10T15:23:03;23.30;75.20
2889;DHT22;1453;42.708;23.282;2022-07-10T15:25:29;23.30;74.70
2889;DHT22;1453;42.708;23.282;2022-07-10T15:27:55;23.30;74.20
2889;DHT22;1453;42.708;23.282;2022-07-10T15:30:21;23.30;74.40
2889;DHT22;1453;42.708;23.282;2022-07-10T15:32:48;23.20;74.20
2889;DHT22;1453;42.708;23.282;2022-07-10T15:35:14;23.10;75.30
2889;DHT22;1453;42.708;23.282;2022-07-10T15:37:39;23.10;76.20
2889;DHT22;1453;42.708;23.282;2022-07-10T15:40:06;23.10;76.10
2889;DHT22;1453;42.708;23.282;2022-07-10T15:42:33;22.80;74.50
2889;DHT22;1453;42.708;23.282;2022-07-10T15:44:59;22.70;73.30
2889;DHT22;1453;42.708;23.282;2022-07-10T15:47:24;22.60;73.50
2889;DHT22;1453;42.708;23.282;2022-07-10T15:49:50;22.60;77.30
2889;DHT22;1453;42.708;23.282;2022-07-10T15:52:16;22.50;81.80
2889;DHT22;1453;42.708;23.282;2022-07-10T15:54:42;22.50;82.90
2889;DHT22;1453;42.708;23.282;2022-07-10T15:57:09;22.60;83.80
2889;DHT22;1453;42.708;23.282;2022-07-10T15:59:37;22.50;85.60
2889;DHT22;1453;42.708;23.282;2022-07-10T16:02:04;22.20;86.00
2889;DHT22;1453;42.708;23.282;2022-07-10T16:04:30;22.10;86.80
2889;DHT22;1453;42.708;23.282;2022-07-10T16:06:56;22.00;88.50
2889;DHT22;1453;42.708;23.282;2022-07-10T16:09:22;22.00;89.80
2889;DHT22;1453;42.708;23.282;2022-07-10T16:11:47;22.00;90.30
2889;DHT22;1453;42.708;23.282;2022-07-10T16:14:13;22.10;89.00
2889;DHT22;1453;42.708;23.282;2022-07-10T16:16:39;21.90;86.00
2889;DHT22;1453;42.708;23.282;2022-07-10T16:19:06;21.50;86.90
2889;DHT22;1453;42.708;23.282;2022-07-10T16:21:33;21.40;86.40
2889;DHT22;1453;42.708;23.282;2022-07-10T16:24:01;21.20;84.00
2889;DHT22;1453;42.708;23.282;2022-07-10T16:26:28;21.30;82.40
2889;DHT22;1453;42.708;23.282;2022-07-10T16:28:54;21.30;81.00
2889;DHT22;1453;42.708;23.282;2022-07-10T16:31:21;21.20;81.20
2889;DHT22;1453;42.708;23.282;2022-07-10T16:33:47;21.20;82.00
2889;DHT22;1453;42.708;23.282;2022-07-10T16:36:13;21.20;81.60
2889;DHT22;1453;42.708;23.282;2022-07-10T16:38:40;21.30;82.10